createdAt,value
2023-08-25T00:02:27.256Z,8.43
2023-08-25T00:04:54.940Z,10.23
2023-08-25T00:07:22.433Z,8.45
2023-08-25T00:09:49.928Z,10.65
2023-08-25T00:12:20.625Z,5.10
2023-08-25T00:14:48.702Z,4.65
2023-08-25T00:17:16.378Z,9.95
2023-08-25T00:19:44.400Z,5.88
2023-08-25T00:22:13.599Z,4.90
2023-08-25T00:24:40.940Z,7.85
2023-08-25T00:27:08.662Z,7.10
2023-08-25T00:29:36.441Z,6.07
2023-08-25T00:32:04.338Z,4.63
2023-08-25T00:34:31.920Z,5.30
2023-08-25T00:37:02.025Z,6.60
2023-08-25T00:39:31.473Z,8.07
2023-08-25T00:41:59.176Z,5.10
2023-08-25T00:44:26.800Z,4.82
2023-08-25T00:46:56.875Z,5.10
2023-08-25T00:49:25.976Z,4.63
2023-08-25T00:51:54.539Z,5.03
2023-08-25T00:54:26.946Z,5.72
2023-08-25T00:56:54.667Z,6.47
2023-08-25T00:59:23.143Z,5.45
2023-08-25T01:01:50.996Z,6.65
2023-08-25T01:04:19.777Z,7.13
2023-08-25T01:06:49.688Z,7.53
2023-08-25T01:09:18.020Z,4.07
2023-08-25T01:12:37.414Z,5.82
2023-08-25T01:15:14.300Z,4.50
2023-08-25T01:17:50.963Z,5.22
2023-08-25T01:21:14.469Z,5.45
2023-08-25T01:24:04.898Z,7.57
2023-08-25T01:26:33.204Z,5.15
2023-08-25T01:29:00.792Z,4.78
2023-08-25T01:31:28.186Z,6.80
2023-08-25T01:33:56.422Z,5.45
2023-08-25T01:36:50.784Z,4.18
2023-08-25T01:39:18.635Z,3.58
2023-08-25T01:41:57.876Z,6.00
2023-08-25T01:44:31.691Z,7.88
2023-08-25T01:47:07.641Z,7.18
2023-08-25T01:49:37.936Z,4.10
2023-08-25T01:52:05.950Z,4.40
2023-08-25T01:54:33.668Z,5.68
2023-08-25T01:57:01.191Z,6.40
2023-08-25T01:59:28.587Z,4.25
2023-08-25T02:01:56.077Z,4.55
2023-08-25T02:04:24.837Z,5.72
2023-08-25T02:06:52.420Z,3.92
2023-08-25T02:09:19.927Z,4.53
2023-08-25T02:11:47.850Z,5.93
2023-08-25T02:14:15.397Z,5.32
2023-08-25T02:16:43.404Z,6.72
2023-08-25T02:19:10.849Z,6.03
2023-08-25T02:21:41.640Z,6.28
2023-08-25T02:24:10.852Z,4.10
2023-08-25T02:26:38.334Z,3.53
2023-08-25T02:29:08.084Z,4.32
2023-08-25T02:31:35.955Z,4.25
2023-08-25T02:34:04.158Z,3.30
2023-08-25T02:36:31.708Z,4.38
2023-08-25T02:38:59.188Z,6.43
2023-08-25T02:41:26.719Z,4.15
2023-08-25T02:43:54.108Z,3.55
2023-08-25T02:46:21.708Z,4.55
2023-08-25T02:48:49.484Z,3.92
2023-08-25T02:51:17.405Z,4.47
2023-08-25T02:53:44.681Z,3.83
2023-08-25T02:56:12.759Z,5.00
2023-08-25T02:58:40.289Z,3.83
2023-08-25T03:01:15.386Z,4.45
2023-08-25T03:03:43.052Z,3.95
2023-08-25T03:06:10.808Z,4.53
2023-08-25T03:08:38.322Z,3.55
2023-08-25T03:11:05.962Z,4.22
2023-08-25T03:13:34.435Z,3.38
2023-08-25T03:16:03.272Z,3.40
2023-08-25T03:18:31.513Z,3.22
2023-08-25T03:20:59.053Z,3.83
2023-08-25T03:23:26.551Z,3.38
2023-08-25T03:25:54.078Z,3.13
2023-08-25T03:28:21.479Z,3.25
2023-08-25T03:30:53.093Z,3.85
2023-08-25T03:33:20.860Z,2.90
2023-08-25T03:35:48.416Z,4.00
2023-08-25T03:38:16.056Z,3.88
2023-08-25T03:40:44.482Z,4.70
2023-08-25T03:43:12.102Z,4.07
2023-08-25T03:45:39.603Z,4.50
2023-08-25T03:48:07.464Z,2.83
2023-08-25T03:50:35.148Z,3.22
2023-08-25T03:53:02.791Z,3.38
2023-08-25T03:55:30.385Z,5.05
2023-08-25T03:57:57.885Z,3.40
2023-08-25T04:00:25.292Z,3.67
2023-08-25T04:03:18.026Z,4.97
2023-08-25T04:05:46.309Z,4.00
2023-08-25T04:08:14.171Z,4.53
2023-08-25T04:10:45.546Z,2.50
2023-08-25T04:13:13.703Z,4.95
2023-08-25T04:15:41.719Z,3.63
2023-08-25T04:18:09.542Z,3.75
2023-08-25T04:20:37.040Z,4.80
2023-08-25T04:23:05.136Z,5.03
2023-08-25T04:25:32.485Z,5.10
2023-08-25T04:28:00.146Z,7.93
2023-08-25T04:30:27.608Z,17.48
2023-08-25T04:32:55.734Z,14.38
2023-08-25T04:35:23.669Z,10.55
2023-08-25T04:37:52.433Z,6.45
2023-08-25T04:40:21.638Z,9.85
2023-08-25T04:42:49.384Z,6.38
2023-08-25T04:45:16.695Z,7.88
2023-08-25T04:47:44.398Z,11.60
2023-08-25T04:50:14.893Z,11.77
2023-08-25T04:52:42.433Z,9.10
2023-08-25T04:55:11.678Z,9.68
2023-08-25T04:57:39.891Z,11.57
2023-08-25T05:00:10.202Z,8.30
2023-08-25T05:02:37.843Z,8.48
2023-08-25T05:05:08.514Z,9.75
2023-08-25T05:07:37.278Z,9.45
2023-08-25T05:10:05.104Z,10.10
2023-08-25T05:12:32.663Z,8.13
2023-08-25T05:15:00.205Z,11.23
2023-08-25T05:17:27.698Z,13.60
2023-08-25T05:19:55.168Z,8.55
2023-08-25T05:22:25.217Z,7.10
2023-08-25T05:24:54.061Z,9.23
2023-08-25T05:27:21.410Z,7.40
2023-08-25T05:29:49.807Z,6.50
2023-08-25T05:32:17.155Z,8.98
2023-08-25T05:34:44.796Z,6.85
2023-08-25T05:37:12.562Z,8.18
2023-08-25T05:39:39.893Z,7.57
2023-08-25T05:42:09.403Z,7.10
2023-08-25T05:44:36.891Z,7.25
2023-08-25T05:47:04.934Z,8.95
2023-08-25T05:49:33.651Z,6.82
2023-08-25T05:52:01.076Z,12.45
2023-08-25T05:54:28.558Z,5.75
2023-08-25T05:56:56.507Z,5.47
2023-08-25T05:59:28.403Z,6.65
2023-08-25T06:01:55.781Z,9.27
2023-08-25T06:04:23.177Z,7.70
2023-08-25T06:06:50.468Z,8.88
2023-08-25T06:09:19.383Z,6.63
2023-08-25T06:11:47.066Z,15.57
2023-08-25T06:14:14.453Z,11.27
2023-08-25T06:16:43.480Z,9.10
2023-08-25T06:19:10.939Z,6.35
2023-08-25T06:21:38.380Z,12.63
2023-08-25T06:24:06.161Z,11.60
2023-08-25T06:26:34.900Z,7.25
2023-08-25T06:29:02.449Z,8.05
2023-08-25T06:31:35.403Z,6.03
2023-08-25T06:34:06.160Z,11.45
2023-08-25T06:36:34.096Z,14.15
2023-08-25T06:39:02.142Z,11.60
2023-08-25T06:41:29.486Z,11.10
2023-08-25T06:43:59.106Z,11.98
2023-08-25T06:46:26.677Z,11.10
2023-08-25T06:48:54.299Z,17.13
2023-08-25T06:51:21.957Z,13.73
2023-08-25T06:53:49.219Z,13.43
2023-08-25T06:56:16.967Z,14.02
2023-08-25T06:58:44.408Z,13.15
2023-08-25T07:01:12.153Z,11.50
2023-08-25T07:03:39.811Z,13.27
2023-08-25T07:06:07.331Z,16.00
2023-08-25T07:08:35.082Z,15.15
2023-08-25T07:11:05.439Z,21.17
2023-08-25T07:13:33.299Z,14.40
2023-08-25T07:16:00.743Z,14.80
2023-08-25T07:18:28.301Z,17.60
2023-08-25T07:20:56.108Z,14.02
2023-08-25T07:23:24.017Z,15.85
2023-08-25T07:25:54.096Z,12.30
2023-08-25T07:28:21.428Z,15.70
2023-08-25T07:30:48.854Z,14.32
2023-08-25T07:33:16.355Z,13.27
2023-08-25T07:35:48.088Z,14.18
2023-08-25T07:38:15.913Z,11.40
2023-08-25T07:40:43.712Z,11.68
2023-08-25T07:43:12.119Z,10.20
2023-08-25T07:45:39.693Z,12.52
2023-08-25T07:48:07.893Z,12.95
2023-08-25T07:50:35.445Z,9.15
2023-08-25T07:53:02.961Z,11.57
2023-08-25T07:55:30.595Z,9.55
2023-08-25T07:58:00.367Z,8.63
2023-08-25T08:00:29.067Z,12.18
2023-08-25T08:02:56.624Z,8.60
2023-08-25T08:05:24.776Z,7.25
2023-08-25T08:07:52.516Z,10.23
2023-08-25T08:10:23.320Z,8.23
2023-08-25T08:12:50.666Z,10.27
2023-08-25T08:15:18.025Z,10.73
2023-08-25T08:17:45.622Z,10.00
2023-08-25T08:20:16.854Z,8.80
2023-08-25T08:22:44.644Z,12.90
2023-08-25T08:25:13.203Z,8.05
2023-08-25T08:27:43.184Z,8.18
2023-08-25T08:30:11.973Z,9.73
2023-08-25T08:32:40.345Z,8.00
2023-08-25T08:35:09.738Z,8.40
2023-08-25T08:37:38.641Z,5.75
2023-08-25T08:40:07.382Z,9.00
2023-08-25T08:42:37.467Z,8.10
2023-08-25T08:45:10.790Z,19.23
2023-08-25T08:47:40.004Z,7.88
2023-08-25T08:50:09.364Z,7.30
2023-08-25T08:52:37.373Z,9.98
2023-08-25T08:55:09.253Z,4.80
2023-08-25T08:57:37.038Z,7.07
2023-08-25T09:00:09.558Z,7.40
2023-08-25T09:02:37.294Z,9.13
2023-08-25T09:05:07.292Z,7.55
2023-08-25T09:07:35.741Z,8.60
2023-08-25T09:10:03.739Z,6.03
2023-08-25T09:12:31.240Z,5.18
2023-08-25T09:14:58.785Z,8.55
2023-08-25T09:17:26.267Z,7.75
2023-08-25T09:19:54.564Z,6.40
2023-08-25T09:22:21.986Z,7.22
2023-08-25T09:24:50.178Z,4.82
2023-08-25T09:27:27.887Z,6.35
2023-08-25T09:30:07.198Z,6.28
2023-08-25T09:32:35.532Z,5.60
2023-08-25T09:35:15.167Z,5.05
2023-08-25T09:37:46.731Z,7.35
2023-08-25T09:40:17.152Z,5.53
2023-08-25T09:42:44.631Z,6.30
2023-08-25T09:45:16.080Z,6.57
2023-08-25T09:47:49.581Z,8.65
2023-08-25T09:50:21.166Z,5.25
2023-08-25T09:52:50.060Z,7.63
2023-08-25T09:55:17.914Z,17.02
2023-08-25T09:57:50.268Z,9.38
2023-08-25T10:00:18.813Z,12.55
2023-08-25T10:02:47.311Z,12.00
2023-08-25T10:05:16.314Z,15.02
2023-08-25T10:07:44.688Z,10.45
2023-08-25T10:10:12.942Z,13.68
2023-08-25T10:12:44.153Z,11.90
2023-08-25T10:15:16.927Z,11.90
2023-08-25T10:17:47.150Z,11.52
2023-08-25T10:20:16.808Z,8.32
2023-08-25T10:22:51.288Z,13.25
2023-08-25T10:25:20.501Z,8.43
2023-08-25T10:27:49.023Z,9.52
2023-08-25T10:30:16.879Z,7.30
2023-08-25T10:32:57.297Z,9.20
2023-08-25T10:35:45.899Z,8.82
2023-08-25T10:38:31.730Z,8.30
2023-08-25T10:41:12.449Z,6.65
2023-08-25T10:43:39.888Z,6.60
2023-08-25T10:46:09.021Z,6.07
2023-08-25T10:48:40.470Z,7.85
2023-08-25T10:51:10.352Z,7.95
2023-08-25T10:53:46.333Z,12.18
2023-08-25T10:56:24.966Z,7.68
2023-08-25T10:59:11.990Z,6.95
2023-08-25T11:01:39.856Z,7.75
2023-08-25T11:04:14.923Z,7.10
2023-08-25T11:06:50.641Z,4.60
2023-08-25T11:09:33.607Z,10.30
2023-08-25T11:12:06.390Z,9.00
2023-08-25T11:14:43.913Z,6.40
2023-08-25T11:17:11.862Z,5.57
2023-08-25T11:19:41.231Z,6.25
2023-08-25T11:22:12.943Z,10.27
2023-08-25T11:24:40.972Z,4.93
2023-08-25T11:27:18.495Z,11.10
2023-08-25T11:29:46.758Z,7.93
2023-08-25T11:32:30.214Z,7.20
2023-08-25T11:37:41.472Z,6.72
2023-08-25T11:40:31.867Z,7.60
2023-08-25T11:42:59.763Z,7.20
2023-08-25T11:45:32.768Z,6.10
2023-08-25T11:48:00.972Z,4.68
2023-08-25T11:50:28.622Z,8.00
2023-08-25T11:52:59.734Z,8.68
2023-08-25T11:55:34.568Z,8.02
2023-08-25T11:58:12.095Z,8.10
2023-08-25T12:00:40.080Z,11.05
2023-08-25T12:03:08.677Z,10.40
2023-08-25T12:05:38.179Z,8.00
2023-08-25T12:08:05.968Z,8.95
2023-08-25T12:10:37.160Z,9.63
2023-08-25T12:13:05.082Z,12.32
2023-08-25T12:15:43.961Z,11.70
2023-08-25T12:18:14.513Z,13.50
2023-08-25T12:20:46.283Z,13.95
2023-08-25T12:23:15.131Z,12.23
2023-08-25T12:25:46.507Z,13.10
2023-08-25T12:28:13.950Z,14.30
2023-08-25T12:30:41.697Z,13.82
2023-08-25T12:33:09.153Z,11.57
2023-08-25T12:35:37.459Z,13.90
2023-08-25T12:38:05.075Z,13.48
2023-08-25T12:40:32.400Z,14.52
2023-08-25T12:42:59.803Z,16.45
2023-08-25T12:45:27.312Z,20.77
2023-08-25T12:47:55.007Z,27.25
2023-08-25T12:50:23.095Z,26.73
2023-08-25T12:52:51.201Z,33.97
2023-08-25T12:55:21.945Z,31.42
2023-08-25T12:57:54.239Z,34.88
2023-08-25T13:00:22.076Z,38.83
2023-08-25T13:02:52.455Z,41.40
2023-08-25T13:05:21.390Z,42.30
2023-08-25T13:07:49.172Z,45.45
2023-08-25T13:10:16.999Z,46.58
2023-08-25T13:12:44.368Z,45.35
2023-08-25T13:15:13.113Z,51.30
2023-08-25T13:17:41.670Z,44.38
2023-08-25T13:20:11.973Z,50.92
2023-08-25T13:22:40.483Z,48.38
2023-08-25T13:25:09.178Z,49.28
2023-08-25T13:27:39.274Z,40.05
2023-08-25T13:30:11.230Z,44.97
2023-08-25T13:32:38.837Z,39.70
2023-08-25T13:35:07.033Z,41.47
2023-08-25T13:37:35.551Z,35.20
2023-08-25T13:40:03.877Z,32.78
2023-08-25T13:42:32.922Z,30.58
2023-08-25T13:45:01.796Z,38.47
2023-08-25T13:47:29.418Z,29.52
2023-08-25T13:49:56.994Z,35.65
2023-08-25T13:52:24.357Z,31.17
2023-08-25T13:54:52.716Z,25.20
2023-08-25T13:57:20.821Z,30.50
2023-08-25T13:59:48.849Z,23.05
2023-08-25T14:02:17.077Z,23.90
2023-08-25T14:04:44.528Z,23.90
2023-08-25T14:07:13.669Z,25.00
2023-08-25T14:09:41.023Z,18.25
2023-08-25T14:12:08.498Z,22.40
2023-08-25T14:14:36.167Z,24.63
2023-08-25T14:17:05.583Z,30.10
2023-08-25T14:19:33.412Z,22.13
2023-08-25T14:22:00.920Z,18.98
2023-08-25T14:24:28.615Z,18.70
2023-08-25T14:26:56.185Z,22.95
2023-08-25T14:29:23.818Z,17.05
2023-08-25T14:31:51.152Z,21.63
2023-08-25T14:34:18.561Z,18.90
2023-08-25T14:36:45.895Z,20.65
2023-08-25T14:39:16.008Z,16.33
2023-08-25T14:41:48.926Z,20.13
2023-08-25T14:44:17.734Z,16.27
2023-08-25T14:46:45.118Z,14.80
2023-08-25T14:49:13.078Z,15.65
2023-08-25T14:51:40.691Z,18.35
2023-08-25T14:54:08.459Z,13.98
2023-08-25T14:56:36.047Z,12.98
2023-08-25T14:59:04.258Z,17.15
2023-08-25T15:01:31.754Z,14.23
2023-08-25T15:04:02.475Z,15.32
2023-08-25T15:06:30.378Z,19.20
2023-08-25T15:08:57.822Z,14.13
2023-08-25T15:11:25.317Z,12.85
2023-08-25T15:13:52.734Z,15.40
2023-08-25T15:16:20.173Z,15.98
2023-08-25T15:18:47.750Z,14.90
2023-08-25T15:21:15.157Z,11.43
2023-08-25T15:23:42.701Z,12.48
2023-08-25T15:26:10.298Z,11.85
2023-08-25T15:28:37.808Z,12.13
2023-08-25T15:31:11.483Z,13.65
2023-08-25T15:33:41.927Z,10.43
2023-08-25T15:36:11.287Z,10.75
2023-08-25T15:38:39.253Z,10.68
2023-08-25T15:41:10.079Z,8.50
2023-08-25T15:43:38.096Z,12.18
2023-08-25T15:46:05.748Z,9.07
2023-08-25T15:48:34.746Z,9.48
2023-08-25T15:51:02.399Z,10.23
2023-08-25T15:53:30.159Z,9.23
2023-08-25T15:55:57.636Z,10.38
2023-08-25T15:58:26.918Z,11.70
2023-08-25T16:01:01.015Z,6.82
2023-08-25T16:03:29.806Z,11.00
2023-08-25T16:05:59.023Z,12.20
2023-08-25T16:08:27.619Z,9.40
2023-08-25T16:11:09.734Z,11.15
2023-08-25T16:13:43.217Z,14.02
2023-08-25T16:16:11.035Z,10.13
2023-08-25T16:18:39.005Z,11.77
2023-08-25T16:21:07.602Z,12.95
2023-08-25T16:23:44.523Z,8.57
2023-08-25T16:26:11.946Z,9.23
2023-08-25T16:28:41.148Z,8.98
2023-08-25T16:31:13.508Z,13.63
2023-08-25T16:33:43.184Z,8.83
2023-08-25T16:36:11.839Z,13.15
2023-08-25T16:38:39.804Z,11.85
2023-08-25T16:41:08.531Z,11.52
2023-08-25T16:43:36.271Z,9.90
2023-08-25T16:46:04.751Z,10.68
2023-08-25T16:48:32.304Z,8.43
2023-08-25T16:50:59.804Z,12.38
2023-08-25T16:53:27.224Z,11.88
2023-08-25T16:55:57.451Z,11.88
2023-08-25T16:58:28.723Z,9.93
2023-08-25T17:00:56.618Z,9.93
2023-08-25T17:03:25.371Z,6.93
2023-08-25T17:06:00.426Z,7.60
2023-08-25T17:08:30.141Z,12.30
2023-08-25T17:10:57.894Z,9.93
2023-08-25T17:13:25.557Z,11.23
2023-08-25T17:15:53.555Z,7.43
2023-08-25T17:18:21.400Z,8.20
2023-08-25T17:20:49.081Z,9.23
2023-08-25T17:23:16.861Z,10.23
2023-08-25T17:25:45.322Z,9.98
2023-08-25T17:28:13.113Z,10.00
2023-08-25T17:30:40.999Z,9.80
2023-08-25T17:33:09.007Z,7.97
2023-08-25T17:35:40.880Z,10.10
2023-08-25T17:38:09.428Z,10.93
2023-08-25T17:40:41.353Z,13.32
2023-08-25T17:43:14.607Z,6.63
2023-08-25T17:45:42.366Z,9.18
2023-08-25T17:48:10.198Z,8.68
2023-08-25T17:50:37.989Z,8.70
2023-08-25T17:53:05.725Z,6.25
2023-08-25T17:55:33.689Z,9.02
2023-08-25T17:58:01.504Z,10.70
2023-08-25T18:00:29.380Z,9.35
2023-08-25T18:02:57.864Z,7.22
2023-08-25T18:05:25.897Z,6.18
2023-08-25T18:07:53.752Z,7.97
2023-08-25T18:10:23.061Z,11.63
2023-08-25T18:12:50.768Z,7.40
2023-08-25T18:15:18.690Z,11.57
2023-08-25T18:17:46.448Z,8.43
2023-08-25T18:20:14.353Z,12.35
2023-08-25T18:22:42.321Z,10.50
2023-08-25T18:25:10.165Z,12.93
2023-08-25T18:27:37.921Z,18.13
2023-08-25T18:30:06.046Z,21.38
2023-08-25T18:32:34.180Z,11.25
2023-08-25T18:35:01.947Z,17.70
2023-08-25T18:37:30.019Z,13.27
2023-08-25T18:40:00.818Z,16.17
2023-08-25T18:42:28.613Z,16.02
2023-08-25T18:44:56.602Z,13.23
2023-08-25T18:47:25.187Z,14.13
2023-08-25T18:49:52.928Z,12.73
2023-08-25T18:52:20.755Z,13.70
2023-08-25T18:54:48.654Z,12.57
2023-08-25T18:57:16.444Z,8.55
2023-08-25T18:59:44.484Z,16.77
2023-08-25T19:02:12.436Z,14.60
2023-08-25T19:04:39.985Z,14.10
2023-08-25T19:07:07.707Z,13.82
2023-08-25T19:09:35.796Z,13.73
2023-08-25T19:12:04.030Z,9.32
2023-08-25T19:14:31.641Z,10.30
2023-08-25T19:16:59.621Z,9.75
2023-08-25T19:19:27.896Z,11.30
2023-08-25T19:21:56.890Z,8.82
2023-08-25T19:24:26.526Z,10.27
2023-08-25T19:26:56.260Z,11.98
2023-08-25T19:29:25.317Z,9.70
2023-08-25T19:31:53.355Z,15.13
2023-08-25T19:34:21.994Z,12.32
2023-08-25T19:36:49.798Z,11.77
2023-08-25T19:39:17.568Z,14.48
2023-08-25T19:41:45.766Z,13.00
2023-08-25T19:44:13.809Z,14.82
2023-08-25T19:46:41.745Z,11.20
2023-08-25T19:49:09.624Z,13.32
2023-08-25T19:51:39.107Z,12.10
2023-08-25T19:54:09.374Z,9.35
2023-08-25T19:56:37.266Z,14.38
2023-08-25T19:59:05.658Z,16.25
2023-08-25T20:01:33.958Z,13.07
2023-08-25T20:04:02.082Z,11.35
2023-08-25T20:06:30.005Z,10.93
2023-08-25T20:08:58.649Z,11.50
2023-08-25T20:11:27.449Z,10.10
2023-08-25T20:13:55.469Z,10.98
2023-08-25T20:16:24.975Z,11.25
2023-08-25T20:18:52.895Z,8.35
2023-08-25T20:21:20.621Z,8.55
2023-08-25T20:23:48.490Z,6.82
2023-08-25T20:26:16.306Z,8.82
2023-08-25T20:28:44.077Z,6.53
2023-08-25T20:31:12.185Z,5.22
2023-08-25T20:33:40.063Z,8.98
2023-08-25T20:36:08.003Z,6.00
2023-08-25T20:38:35.935Z,9.80
2023-08-25T20:41:06.783Z,7.38
2023-08-25T20:43:38.381Z,12.02
2023-08-25T20:46:19.538Z,7.90
2023-08-25T20:48:49.802Z,5.93
2023-08-25T20:51:21.970Z,6.55
2023-08-25T20:53:53.721Z,10.07
2023-08-25T20:56:22.193Z,8.43
2023-08-25T20:58:50.235Z,6.15
2023-08-25T21:01:18.408Z,3.95
2023-08-25T21:03:46.334Z,5.07
2023-08-25T21:06:14.613Z,9.82
2023-08-25T21:08:42.607Z,7.75
2023-08-25T21:11:10.352Z,8.05
2023-08-25T21:13:38.650Z,10.65
2023-08-25T21:16:06.800Z,5.95
2023-08-25T21:18:34.652Z,8.70
2023-08-25T21:21:02.478Z,5.38
2023-08-25T21:23:30.316Z,9.32
2023-08-25T21:26:00.865Z,6.65
2023-08-25T21:28:29.032Z,6.25
2023-08-25T21:30:58.462Z,9.35
2023-08-25T21:33:27.434Z,6.65
2023-08-25T21:35:55.381Z,7.30
2023-08-25T21:38:23.110Z,7.85
2023-08-25T21:40:50.820Z,8.27
2023-08-25T21:43:18.688Z,8.82
2023-08-25T21:45:49.725Z,10.85
2023-08-25T21:48:17.442Z,7.68
2023-08-25T21:50:46.260Z,13.93
2023-08-25T21:53:14.118Z,11.50
2023-08-25T21:55:41.978Z,10.63
2023-08-25T21:58:10.149Z,14.32
2023-08-25T22:00:38.418Z,12.00
2023-08-25T22:03:06.588Z,15.75
2023-08-25T22:05:36.839Z,12.63
2023-08-25T22:08:04.954Z,13.55
2023-08-25T22:10:36.974Z,15.88
2023-08-25T22:13:05.696Z,17.33
2023-08-25T22:15:33.723Z,19.63
2023-08-25T22:18:01.620Z,19.33
2023-08-25T22:20:29.442Z,19.80
2023-08-25T22:22:57.355Z,19.55
2023-08-25T22:25:25.253Z,22.65
2023-08-25T22:27:53.185Z,16.98
2023-08-25T22:30:21.115Z,14.43
2023-08-25T22:35:19.632Z,14.75
2023-08-25T22:37:47.478Z,19.00
2023-08-25T22:40:15.485Z,17.70
2023-08-25T22:42:43.685Z,17.35
2023-08-25T22:45:11.859Z,18.48
2023-08-25T22:47:39.631Z,19.15
2023-08-25T22:50:10.637Z,22.05
2023-08-25T22:52:38.356Z,23.50
2023-08-25T22:55:06.317Z,20.05
2023-08-25T22:57:34.201Z,18.52
2023-08-25T23:00:01.891Z,23.02
2023-08-25T23:02:29.702Z,22.17
2023-08-25T23:04:57.513Z,22.58
2023-08-25T23:07:25.293Z,23.08
2023-08-25T23:09:53.052Z,22.05
2023-08-25T23:12:20.676Z,21.50
2023-08-25T23:14:48.494Z,21.88
2023-08-25T23:17:16.306Z,21.52
2023-08-25T23:19:44.018Z,23.02
2023-08-25T23:22:13.750Z,20.85
2023-08-25T23:24:46.481Z,23.77
2023-08-25T23:27:17.307Z,20.67
2023-08-25T23:29:45.122Z,23.58
2023-08-25T23:32:15.352Z,21.65
2023-08-25T23:34:43.154Z,24.50
2023-08-25T23:37:11.143Z,19.52
2023-08-25T23:39:38.909Z,22.50
2023-08-25T23:42:06.773Z,25.50
2023-08-25T23:44:34.668Z,25.02
2023-08-25T23:47:02.280Z,19.38
2023-08-25T23:49:29.958Z,17.25
2023-08-25T23:51:59.696Z,16.40
2023-08-25T23:54:29.857Z,19.38
2023-08-25T23:56:57.586Z,16.83
2023-08-25T23:59:25.365Z,13.63
